sensor_id;sensor_type;location;lat;lon;timestamp;P1;durP1;ratioP1;P2;durP2;ratioP2
18677;SDS011;9469;51.114;13.914;2023-11-22T00:00:46;20.63;;;13.50;;
18677;SDS011;9469;51.114;13.914;2023-11-22T00:05:52;19.60;;;14.00;;
18677;SDS011;9469;51.114;13.914;2023-11-22T00:11:00;21.37;;;15.93;;
18677;SDS011;9469;51.114;13.914;2023-11-22T00:16:12;21.67;;;16.47;;
18677;SDS011;9469;51.114;13.914;2023-11-22T00:21:20;24.67;;;14.90;;
18677;SDS011;9469;51.114;13.914;2023-11-22T00:26:28;22.97;;;15.60;;
18677;SDS011;9469;51.114;13.914;2023-11-22T00:31:36;22.00;;;15.67;;
18677;SDS011;9469;51.114;13.914;2023-11-22T00:36:42;21.87;;;15.20;;
18677;SDS011;9469;51.114;13.914;2023-11-22T00:41:47;22.20;;;14.00;;
18677;SDS011;9469;51.114;13.914;2023-11-22T00:46:56;22.83;;;15.53;;
18677;SDS011;9469;51.114;13.914;2023-11-22T00:52:02;25.67;;;15.70;;
18677;SDS011;9469;51.114;13.914;2023-11-22T00:57:09;27.30;;;18.03;;
18677;SDS011;9469;51.114;13.914;2023-11-22T01:02:17;26.53;;;17.50;;
18677;SDS011;9469;51.114;13.914;2023-11-22T01:07:23;25.57;;;16.80;;
18677;SDS011;9469;51.114;13.914;2023-11-22T01:12:28;23.43;;;15.70;;
18677;SDS011;9469;51.114;13.914;2023-11-22T01:17:36;30.90;;;18.60;;
18677;SDS011;9469;51.114;13.914;2023-11-22T01:22:42;26.27;;;16.13;;
18677;SDS011;9469;51.114;13.914;2023-11-22T01:27:47;25.47;;;15.53;;
18677;SDS011;9469;51.114;13.914;2023-11-22T01:32:55;21.97;;;15.83;;
18677;SDS011;9469;51.114;13.914;2023-11-22T01:38:00;23.63;;;16.40;;
18677;SDS011;9469;51.114;13.914;2023-11-22T01:43:06;23.80;;;15.20;;
18677;SDS011;9469;51.114;13.914;2023-11-22T01:48:14;23.67;;;15.97;;
18677;SDS011;9469;51.114;13.914;2023-11-22T01:53:19;24.80;;;17.33;;
18677;SDS011;9469;51.114;13.914;2023-11-22T01:58:25;22.10;;;14.33;;
18677;SDS011;9469;51.114;13.914;2023-11-22T02:03:33;24.40;;;16.37;;
18677;SDS011;9469;51.114;13.914;2023-11-22T02:08:38;25.80;;;16.03;;
18677;SDS011;9469;51.114;13.914;2023-11-22T02:13:43;29.53;;;17.57;;
18677;SDS011;9469;51.114;13.914;2023-11-22T02:18:51;24.60;;;16.53;;
18677;SDS011;9469;51.114;13.914;2023-11-22T02:23:59;28.80;;;17.67;;
18677;SDS011;9469;51.114;13.914;2023-11-22T02:29:04;31.07;;;18.30;;
18677;SDS011;9469;51.114;13.914;2023-11-22T02:34:12;27.70;;;17.13;;
18677;SDS011;9469;51.114;13.914;2023-11-22T02:39:20;30.07;;;16.87;;
18677;SDS011;9469;51.114;13.914;2023-11-22T02:44:26;31.33;;;18.10;;
18677;SDS011;9469;51.114;13.914;2023-11-22T02:49:31;26.23;;;17.13;;
18677;SDS011;9469;51.114;13.914;2023-11-22T02:54:40;27.43;;;17.47;;
18677;SDS011;9469;51.114;13.914;2023-11-22T02:59:47;27.63;;;16.23;;
18677;SDS011;9469;51.114;13.914;2023-11-22T03:04:52;24.73;;;15.20;;
18677;SDS011;9469;51.114;13.914;2023-11-22T03:10:00;25.30;;;15.73;;
18677;SDS011;9469;51.114;13.914;2023-11-22T03:15:07;28.73;;;17.17;;
18677;SDS011;9469;51.114;13.914;2023-11-22T03:20:13;23.07;;;15.77;;
18677;SDS011;9469;51.114;13.914;2023-11-22T03:25:21;25.97;;;16.77;;
18677;SDS011;9469;51.114;13.914;2023-11-22T03:30:26;23.03;;;15.63;;
18677;SDS011;9469;51.114;13.914;2023-11-22T03:35:31;21.90;;;15.17;;
18677;SDS011;9469;51.114;13.914;2023-11-22T03:40:40;21.67;;;14.67;;
18677;SDS011;9469;51.114;13.914;2023-11-22T03:45:45;21.77;;;14.00;;
18677;SDS011;9469;51.114;13.914;2023-11-22T03:50:50;21.63;;;14.67;;
18677;SDS011;9469;51.114;13.914;2023-11-22T03:55:57;21.03;;;13.97;;
18677;SDS011;9469;51.114;13.914;2023-11-22T04:01:03;22.07;;;14.50;;
18677;SDS011;9469;51.114;13.914;2023-11-22T04:06:08;19.67;;;14.30;;
18677;SDS011;9469;51.114;13.914;2023-11-22T04:11:16;21.40;;;14.20;;
18677;SDS011;9469;51.114;13.914;2023-11-22T04:16:21;28.03;;;15.13;;
18677;SDS011;9469;51.114;13.914;2023-11-22T04:21:27;25.70;;;16.70;;
18677;SDS011;9469;51.114;13.914;2023-11-22T04:26:35;25.53;;;15.77;;
18677;SDS011;9469;51.114;13.914;2023-11-22T04:31:41;24.50;;;15.57;;
18677;SDS011;9469;51.114;13.914;2023-11-22T04:36:46;25.93;;;18.13;;
18677;SDS011;9469;51.114;13.914;2023-11-22T04:41:54;25.73;;;15.90;;
18677;SDS011;9469;51.114;13.914;2023-11-22T04:46:59;23.67;;;15.70;;
18677;SDS011;9469;51.114;13.914;2023-11-22T04:52:04;29.33;;;17.37;;
18677;SDS011;9469;51.114;13.914;2023-11-22T04:57:12;24.73;;;16.00;;
18677;SDS011;9469;51.114;13.914;2023-11-22T05:02:18;27.50;;;18.03;;
18677;SDS011;9469;51.114;13.914;2023-11-22T05:07:23;29.07;;;18.40;;
18677;SDS011;9469;51.114;13.914;2023-11-22T05:12:31;24.27;;;17.53;;
18677;SDS011;9469;51.114;13.914;2023-11-22T05:17:36;29.37;;;18.47;;
18677;SDS011;9469;51.114;13.914;2023-11-22T05:22:42;29.23;;;18.20;;
18677;SDS011;9469;51.114;13.914;2023-11-22T05:27:49;26.77;;;17.60;;
18677;SDS011;9469;51.114;13.914;2023-11-22T05:32:56;29.77;;;17.57;;
18677;SDS011;9469;51.114;13.914;2023-11-22T05:38:02;27.80;;;17.17;;
18677;SDS011;9469;51.114;13.914;2023-11-22T05:43:10;31.23;;;18.07;;
18677;SDS011;9469;51.114;13.914;2023-11-22T05:48:15;26.83;;;17.03;;
18677;SDS011;9469;51.114;13.914;2023-11-22T05:53:21;30.40;;;20.13;;
18677;SDS011;9469;51.114;13.914;2023-11-22T05:58:28;31.27;;;19.40;;
18677;SDS011;9469;51.114;13.914;2023-11-22T06:03:36;30.73;;;19.23;;
18677;SDS011;9469;51.114;13.914;2023-11-22T06:08:41;32.03;;;19.30;;
18677;SDS011;9469;51.114;13.914;2023-11-22T06:13:48;32.00;;;17.73;;
18677;SDS011;9469;51.114;13.914;2023-11-22T06:18:54;32.33;;;19.23;;
18677;SDS011;9469;51.114;13.914;2023-11-22T06:23:59;30.93;;;19.87;;
18677;SDS011;9469;51.114;13.914;2023-11-22T06:29:09;33.10;;;19.23;;
18677;SDS011;9469;51.114;13.914;2023-11-22T06:34:17;32.13;;;19.20;;
18677;SDS011;9469;51.114;13.914;2023-11-22T06:39:22;34.33;;;20.13;;
18677;SDS011;9469;51.114;13.914;2023-11-22T06:44:30;30.97;;;18.80;;
18677;SDS011;9469;51.114;13.914;2023-11-22T06:49:38;32.07;;;19.37;;
18677;SDS011;9469;51.114;13.914;2023-11-22T06:54:48;36.40;;;21.63;;
18677;SDS011;9469;51.114;13.914;2023-11-22T06:59:56;30.23;;;19.57;;
18677;SDS011;9469;51.114;13.914;2023-11-22T07:05:03;32.33;;;19.03;;
18677;SDS011;9469;51.114;13.914;2023-11-22T07:10:12;33.80;;;19.73;;
18677;SDS011;9469;51.114;13.914;2023-11-22T07:15:20;34.20;;;20.33;;
18677;SDS011;9469;51.114;13.914;2023-11-22T07:20:26;35.77;;;21.27;;
18677;SDS011;9469;51.114;13.914;2023-11-22T07:25:32;31.83;;;19.20;;
18677;SDS011;9469;51.114;13.914;2023-11-22T07:30:39;38.30;;;21.07;;
18677;SDS011;9469;51.114;13.914;2023-11-22T07:35:45;35.87;;;21.57;;
18677;SDS011;9469;51.114;13.914;2023-11-22T07:40:50;32.33;;;19.33;;
18677;SDS011;9469;51.114;13.914;2023-11-22T07:45:58;34.13;;;21.87;;
18677;SDS011;9469;51.114;13.914;2023-11-22T07:51:13;29.20;;;18.57;;
18677;SDS011;9469;51.114;13.914;2023-11-22T07:56:23;34.37;;;20.77;;
18677;SDS011;9469;51.114;13.914;2023-11-22T08:01:32;31.90;;;20.00;;
18677;SDS011;9469;51.114;13.914;2023-11-22T08:06:38;32.63;;;19.47;;
18677;SDS011;9469;51.114;13.914;2023-11-22T08:11:44;33.90;;;19.03;;
18677;SDS011;9469;51.114;13.914;2023-11-22T08:16:52;32.60;;;19.63;;
18677;SDS011;9469;51.114;13.914;2023-11-22T08:21:57;29.90;;;19.30;;
18677;SDS011;9469;51.114;13.914;2023-11-22T08:27:02;31.10;;;19.10;;
18677;SDS011;9469;51.114;13.914;2023-11-22T08:32:16;28.70;;;18.10;;
18677;SDS011;9469;51.114;13.914;2023-11-22T08:37:25;33.13;;;17.70;;
18677;SDS011;9469;51.114;13.914;2023-11-22T08:42:30;31.73;;;18.07;;
18677;SDS011;9469;51.114;13.914;2023-11-22T08:47:39;27.70;;;17.27;;
18677;SDS011;9469;51.114;13.914;2023-11-22T08:52:45;23.53;;;15.90;;
18677;SDS011;9469;51.114;13.914;2023-11-22T08:57:53;28.50;;;15.60;;
18677;SDS011;9469;51.114;13.914;2023-11-22T09:03:01;23.40;;;14.47;;
18677;SDS011;9469;51.114;13.914;2023-11-22T09:08:07;20.80;;;12.93;;
18677;SDS011;9469;51.114;13.914;2023-11-22T09:13:26;22.97;;;13.57;;
18677;SDS011;9469;51.114;13.914;2023-11-22T09:18:34;25.43;;;13.90;;
18677;SDS011;9469;51.114;13.914;2023-11-22T09:23:39;23.43;;;13.90;;
18677;SDS011;9469;51.114;13.914;2023-11-22T09:28:44;20.13;;;12.80;;
18677;SDS011;9469;51.114;13.914;2023-11-22T09:33:52;19.37;;;13.07;;
18677;SDS011;9469;51.114;13.914;2023-11-22T09:38:58;21.90;;;13.13;;
18677;SDS011;9469;51.114;13.914;2023-11-22T09:44:05;19.40;;;11.90;;
18677;SDS011;9469;51.114;13.914;2023-11-22T09:49:18;20.63;;;11.33;;
18677;SDS011;9469;51.114;13.914;2023-11-22T09:54:30;18.53;;;12.00;;
18677;SDS011;9469;51.114;13.914;2023-11-22T09:59:39;20.97;;;13.57;;
18677;SDS011;9469;51.114;13.914;2023-11-22T10:04:50;23.40;;;13.23;;
18677;SDS011;9469;51.114;13.914;2023-11-22T10:09:58;18.20;;;12.23;;
18677;SDS011;9469;51.114;13.914;2023-11-22T10:15:11;19.27;;;11.43;;
18677;SDS011;9469;51.114;13.914;2023-11-22T10:20:35;20.17;;;11.43;;
18677;SDS011;9469;51.114;13.914;2023-11-22T10:25:46;17.20;;;10.67;;
18677;SDS011;9469;51.114;13.914;2023-11-22T10:30:54;18.37;;;10.27;;
18677;SDS011;9469;51.114;13.914;2023-11-22T10:36:03;15.77;;;10.50;;
18677;SDS011;9469;51.114;13.914;2023-11-22T10:41:10;13.40;;;9.83;;
18677;SDS011;9469;51.114;13.914;2023-11-22T10:46:15;15.87;;;11.03;;
18677;SDS011;9469;51.114;13.914;2023-11-22T10:51:26;14.97;;;9.50;;
18677;SDS011;9469;51.114;13.914;2023-11-22T10:56:36;15.37;;;11.13;;
18677;SDS011;9469;51.114;13.914;2023-11-22T11:01:47;14.33;;;11.43;;
18677;SDS011;9469;51.114;13.914;2023-11-22T11:06:58;15.37;;;10.30;;
18677;SDS011;9469;51.114;13.914;2023-11-22T11:12:05;13.47;;;9.13;;
18677;SDS011;9469;51.114;13.914;2023-11-22T11:17:14;19.40;;;10.37;;
18677;SDS011;9469;51.114;13.914;2023-11-22T11:22:23;14.40;;;9.80;;
18677;SDS011;9469;51.114;13.914;2023-11-22T11:27:29;13.50;;;9.73;;
18677;SDS011;9469;51.114;13.914;2023-11-22T11:32:39;16.17;;;11.27;;
18677;SDS011;9469;51.114;13.914;2023-11-22T11:37:54;16.47;;;10.50;;
18677;SDS011;9469;51.114;13.914;2023-11-22T11:43:05;13.53;;;9.73;;
18677;SDS011;9469;51.114;13.914;2023-11-22T11:48:13;13.73;;;9.43;;
18677;SDS011;9469;51.114;13.914;2023-11-22T11:53:25;15.53;;;9.90;;
18677;SDS011;9469;51.114;13.914;2023-11-22T11:58:33;13.23;;;10.23;;
18677;SDS011;9469;51.114;13.914;2023-11-22T12:03:39;19.00;;;10.43;;
18677;SDS011;9469;51.114;13.914;2023-11-22T12:08:49;19.23;;;10.57;;
18677;SDS011;9469;51.114;13.914;2023-11-22T12:13:57;13.03;;;10.20;;
18677;SDS011;9469;51.114;13.914;2023-11-22T12:19:05;16.33;;;10.23;;
18677;SDS011;9469;51.114;13.914;2023-11-22T12:24:16;12.83;;;9.30;;
18677;SDS011;9469;51.114;13.914;2023-11-22T12:29:23;14.80;;;9.90;;
18677;SDS011;9469;51.114;13.914;2023-11-22T12:34:28;16.50;;;10.80;;
18677;SDS011;9469;51.114;13.914;2023-11-22T12:39:39;14.93;;;10.80;;
18677;SDS011;9469;51.114;13.914;2023-11-22T12:44:50;13.40;;;10.10;;
18677;SDS011;9469;51.114;13.914;2023-11-22T12:50:00;16.53;;;11.37;;
18677;SDS011;9469;51.114;13.914;2023-11-22T12:55:11;14.30;;;9.40;;
18677;SDS011;9469;51.114;13.914;2023-11-22T13:00:16;16.00;;;10.97;;
18677;SDS011;9469;51.114;13.914;2023-11-22T13:05:31;13.37;;;9.97;;
18677;SDS011;9469;51.114;13.914;2023-11-22T13:10:42;16.50;;;9.93;;
18677;SDS011;9469;51.114;13.914;2023-11-22T13:15:51;14.20;;;8.83;;
18677;SDS011;9469;51.114;13.914;2023-11-22T13:20:57;10.30;;;8.53;;
18677;SDS011;9469;51.114;13.914;2023-11-22T13:26:08;12.80;;;8.37;;
18677;SDS011;9469;51.114;13.914;2023-11-22T13:31:17;12.67;;;8.80;;
18677;SDS011;9469;51.114;13.914;2023-11-22T13:36:25;13.27;;;9.47;;
18677;SDS011;9469;51.114;13.914;2023-11-22T13:41:36;10.00;;;8.43;;
18677;SDS011;9469;51.114;13.914;2023-11-22T13:46:44;12.50;;;9.67;;
18677;SDS011;9469;51.114;13.914;2023-11-22T13:51:50;13.13;;;9.70;;
18677;SDS011;9469;51.114;13.914;2023-11-22T13:56:58;16.23;;;9.60;;
18677;SDS011;9469;51.114;13.914;2023-11-22T14:02:05;11.10;;;9.17;;
18677;SDS011;9469;51.114;13.914;2023-11-22T14:07:11;12.20;;;9.03;;
18677;SDS011;9469;51.114;13.914;2023-11-22T14:12:19;13.13;;;8.73;;
18677;SDS011;9469;51.114;13.914;2023-11-22T14:17:25;10.17;;;7.83;;
18677;SDS011;9469;51.114;13.914;2023-11-22T14:22:31;12.43;;;8.43;;
18677;SDS011;9469;51.114;13.914;2023-11-22T14:27:38;12.90;;;8.87;;
18677;SDS011;9469;51.114;13.914;2023-11-22T14:32:44;11.40;;;9.30;;
18677;SDS011;9469;51.114;13.914;2023-11-22T14:37:49;10.53;;;8.77;;
18677;SDS011;9469;51.114;13.914;2023-11-22T14:42:57;10.87;;;9.07;;
18677;SDS011;9469;51.114;13.914;2023-11-22T14:48:05;12.53;;;9.73;;
18677;SDS011;9469;51.114;13.914;2023-11-22T14:53:11;10.93;;;8.23;;
18677;SDS011;9469;51.114;13.914;2023-11-22T14:58:19;12.10;;;8.87;;
18677;SDS011;9469;51.114;13.914;2023-11-22T15:03:24;12.43;;;8.60;;
18677;SDS011;9469;51.114;13.914;2023-11-22T15:08:30;12.90;;;9.20;;
18677;SDS011;9469;51.114;13.914;2023-11-22T15:13:39;12.10;;;9.23;;
18677;SDS011;9469;51.114;13.914;2023-11-22T15:18:44;12.87;;;8.77;;
18677;SDS011;9469;51.114;13.914;2023-11-22T15:23:49;14.97;;;9.60;;
18677;SDS011;9469;51.114;13.914;2023-11-22T15:28:57;13.63;;;10.33;;
18677;SDS011;9469;51.114;13.914;2023-11-22T15:34:03;10.67;;;8.07;;
18677;SDS011;9469;51.114;13.914;2023-11-22T15:39:11;12.93;;;9.00;;
18677;SDS011;9469;51.114;13.914;2023-11-22T15:44:21;12.87;;;8.87;;
18677;SDS011;9469;51.114;13.914;2023-11-22T15:49:26;17.10;;;10.80;;
18677;SDS011;9469;51.114;13.914;2023-11-22T15:54:32;18.53;;;11.20;;
18677;SDS011;9469;51.114;13.914;2023-11-22T15:59:40;15.57;;;10.20;;
18677;SDS011;9469;51.114;13.914;2023-11-22T16:04:45;15.70;;;10.97;;
18677;SDS011;9469;51.114;13.914;2023-11-22T16:09:54;14.93;;;10.43;;
18677;SDS011;9469;51.114;13.914;2023-11-22T16:15:03;14.27;;;11.63;;
18677;SDS011;9469;51.114;13.914;2023-11-22T16:20:09;16.20;;;10.77;;
18677;SDS011;9469;51.114;13.914;2023-11-22T16:25:16;14.20;;;10.63;;
18677;SDS011;9469;51.114;13.914;2023-11-22T16:30:30;16.23;;;11.37;;
18677;SDS011;9469;51.114;13.914;2023-11-22T16:35:35;16.50;;;11.40;;
18677;SDS011;9469;51.114;13.914;2023-11-22T16:40:41;18.20;;;12.23;;
18677;SDS011;9469;51.114;13.914;2023-11-22T16:45:54;24.40;;;14.47;;
18677;SDS011;9469;51.114;13.914;2023-11-22T16:50:59;28.77;;;15.17;;
18677;SDS011;9469;51.114;13.914;2023-11-22T16:56:07;23.17;;;14.43;;
18677;SDS011;9469;51.114;13.914;2023-11-22T17:01:15;27.70;;;14.57;;
18677;SDS011;9469;51.114;13.914;2023-11-22T17:06:22;21.07;;;14.63;;
18677;SDS011;9469;51.114;13.914;2023-11-22T17:11:28;20.23;;;13.17;;
18677;SDS011;9469;51.114;13.914;2023-11-22T17:16:36;24.30;;;14.80;;
18677;SDS011;9469;51.114;13.914;2023-11-22T17:21:43;27.40;;;15.27;;
18677;SDS011;9469;51.114;13.914;2023-11-22T17:26:48;19.93;;;12.57;;
18677;SDS011;9469;51.114;13.914;2023-11-22T17:32:00;25.47;;;15.10;;
18677;SDS011;9469;51.114;13.914;2023-11-22T17:37:10;21.27;;;14.47;;
18677;SDS011;9469;51.114;13.914;2023-11-22T17:42:16;18.73;;;13.00;;
18677;SDS011;9469;51.114;13.914;2023-11-22T17:47:24;26.60;;;16.97;;
18677;SDS011;9469;51.114;13.914;2023-11-22T17:52:34;20.17;;;12.53;;
18677;SDS011;9469;51.114;13.914;2023-11-22T17:57:39;25.23;;;15.87;;
18677;SDS011;9469;51.114;13.914;2023-11-22T18:02:49;19.90;;;13.20;;
18677;SDS011;9469;51.114;13.914;2023-11-22T18:07:54;29.67;;;16.00;;
18677;SDS011;9469;51.114;13.914;2023-11-22T18:13:00;24.17;;;15.67;;
18677;SDS011;9469;51.114;13.914;2023-11-22T18:18:12;38.20;;;20.03;;
18677;SDS011;9469;51.114;13.914;2023-11-22T18:23:20;24.80;;;15.17;;
18677;SDS011;9469;51.114;13.914;2023-11-22T18:28:25;22.40;;;14.37;;
18677;SDS011;9469;51.114;13.914;2023-11-22T18:33:36;25.37;;;15.13;;
18677;SDS011;9469;51.114;13.914;2023-11-22T18:38:41;23.60;;;14.87;;
18677;SDS011;9469;51.114;13.914;2023-11-22T18:43:48;22.53;;;15.70;;
18677;SDS011;9469;51.114;13.914;2023-11-22T18:48:56;20.53;;;13.97;;
18677;SDS011;9469;51.114;13.914;2023-11-22T18:54:07;21.13;;;14.20;;
18677;SDS011;9469;51.114;13.914;2023-11-22T18:59:13;26.30;;;15.90;;
18677;SDS011;9469;51.114;13.914;2023-11-22T19:04:22;27.17;;;17.10;;
18677;SDS011;9469;51.114;13.914;2023-11-22T19:09:27;23.57;;;15.07;;
18677;SDS011;9469;51.114;13.914;2023-11-22T19:14:36;22.23;;;15.63;;
18677;SDS011;9469;51.114;13.914;2023-11-22T19:19:44;26.20;;;16.00;;
18677;SDS011;9469;51.114;13.914;2023-11-22T19:24:49;25.77;;;15.83;;
18677;SDS011;9469;51.114;13.914;2023-11-22T19:29:55;23.17;;;16.40;;
18677;SDS011;9469;51.114;13.914;2023-11-22T19:35:04;27.67;;;16.10;;
18677;SDS011;9469;51.114;13.914;2023-11-22T19:40:12;32.73;;;18.20;;
18677;SDS011;9469;51.114;13.914;2023-11-22T19:45:17;31.03;;;20.13;;
18677;SDS011;9469;51.114;13.914;2023-11-22T19:50:25;24.80;;;15.90;;
18677;SDS011;9469;51.114;13.914;2023-11-22T19:55:31;27.77;;;16.37;;
18677;SDS011;9469;51.114;13.914;2023-11-22T20:00:39;26.60;;;16.27;;
18677;SDS011;9469;51.114;13.914;2023-11-22T20:05:48;26.03;;;16.23;;
18677;SDS011;9469;51.114;13.914;2023-11-22T20:10:54;28.53;;;16.87;;
18677;SDS011;9469;51.114;13.914;2023-11-22T20:16:00;26.90;;;16.10;;
18677;SDS011;9469;51.114;13.914;2023-11-22T20:21:08;28.00;;;16.80;;
18677;SDS011;9469;51.114;13.914;2023-11-22T20:26:15;25.50;;;15.93;;
18677;SDS011;9469;51.114;13.914;2023-11-22T20:31:21;26.27;;;17.30;;
18677;SDS011;9469;51.114;13.914;2023-11-22T20:36:30;28.00;;;18.07;;
18677;SDS011;9469;51.114;13.914;2023-11-22T20:41:39;27.80;;;17.17;;
18677;SDS011;9469;51.114;13.914;2023-11-22T20:46:45;28.20;;;15.80;;
18677;SDS011;9469;51.114;13.914;2023-11-22T20:51:54;26.13;;;16.93;;
18677;SDS011;9469;51.114;13.914;2023-11-22T20:57:00;27.57;;;16.63;;
18677;SDS011;9469;51.114;13.914;2023-11-22T21:02:07;25.67;;;16.73;;
18677;SDS011;9469;51.114;13.914;2023-11-22T21:07:18;26.23;;;17.10;;
18677;SDS011;9469;51.114;13.914;2023-11-22T21:12:23;24.80;;;15.47;;
18677;SDS011;9469;51.114;13.914;2023-11-22T21:17:31;25.20;;;16.03;;
18677;SDS011;9469;51.114;13.914;2023-11-22T21:22:46;27.13;;;18.03;;
18677;SDS011;9469;51.114;13.914;2023-11-22T21:27:51;27.17;;;16.80;;
18677;SDS011;9469;51.114;13.914;2023-11-22T21:32:59;29.90;;;17.40;;
18677;SDS011;9469;51.114;13.914;2023-11-22T21:38:07;30.93;;;17.53;;
18677;SDS011;9469;51.114;13.914;2023-11-22T21:43:13;25.23;;;16.20;;
18677;SDS011;9469;51.114;13.914;2023-11-22T21:48:18;27.43;;;17.40;;
18677;SDS011;9469;51.114;13.914;2023-11-22T21:53:32;24.37;;;14.70;;
18677;SDS011;9469;51.114;13.914;2023-11-22T21:58:40;27.43;;;16.00;;
18677;SDS011;9469;51.114;13.914;2023-11-22T22:03:45;22.90;;;14.00;;
18677;SDS011;9469;51.114;13.914;2023-11-22T22:08:53;23.30;;;14.10;;
18677;SDS011;9469;51.114;13.914;2023-11-22T22:13:59;25.17;;;14.73;;
18677;SDS011;9469;51.114;13.914;2023-11-22T22:19:04;22.10;;;14.87;;
18677;SDS011;9469;51.114;13.914;2023-11-22T22:24:14;20.33;;;12.93;;
18677;SDS011;9469;51.114;13.914;2023-11-22T22:29:19;20.53;;;12.50;;
18677;SDS011;9469;51.114;13.914;2023-11-22T22:34:25;17.83;;;12.13;;
18677;SDS011;9469;51.114;13.914;2023-11-22T22:39:32;21.87;;;13.33;;
18677;SDS011;9469;51.114;13.914;2023-11-22T22:44:40;20.17;;;12.27;;
18677;SDS011;9469;51.114;13.914;2023-11-22T22:49:46;17.27;;;11.53;;
18677;SDS011;9469;51.114;13.914;2023-11-22T22:54:57;17.03;;;12.10;;
18677;SDS011;9469;51.114;13.914;2023-11-22T23:00:03;19.40;;;11.67;;
18677;SDS011;9469;51.114;13.914;2023-11-22T23:05:25;16.80;;;11.30;;
18677;SDS011;9469;51.114;13.914;2023-11-22T23:10:34;15.70;;;9.97;;
18677;SDS011;9469;51.114;13.914;2023-11-22T23:15:43;11.93;;;9.50;;
18677;SDS011;9469;51.114;13.914;2023-11-22T23:20:48;13.07;;;9.37;;
18677;SDS011;9469;51.114;13.914;2023-11-22T23:25:58;13.20;;;9.23;;
18677;SDS011;9469;51.114;13.914;2023-11-22T23:31:03;13.00;;;9.17;;
18677;SDS011;9469;51.114;13.914;2023-11-22T23:36:09;13.30;;;8.30;;
18677;SDS011;9469;51.114;13.914;2023-11-22T23:41:18;14.63;;;8.33;;
18677;SDS011;9469;51.114;13.914;2023-11-22T23:46:23;10.10;;;7.83;;
18677;SDS011;9469;51.114;13.914;2023-11-22T23:51:33;10.63;;;8.00;;
18677;SDS011;9469;51.114;13.914;2023-11-22T23:56:40;10.20;;;7.40;;
